Time;durP1;ratioP1;P1;durP2;ratioP2;P2;SDS_P1;SDS_P2;PMS_P1;PMS_P2;Temp;Humidity;BMP_temperature;BMP_pressure;BME280_temperature;BME280_humidity;BME280_pressure;Samples;Min_cycle;Max_cycle;Signal;HPM_P1;HPM_P2
2022/10/31 00:01:28;;;;;;;46.65;22.55;;;11.30;99.90;;;;;;5155876;27;20475;-62
2022/10/31 00:03:54;;;;;;;44.03;22.42;;;11.10;99.90;;;;;;5155784;27;20043;-63
2022/10/31 00:06:21;;;;;;;41.83;23.00;;;11.80;99.90;;;;;;5155923;27;20070;-63
2022/10/31 00:08:47;;;;;;;50.95;23.48;;;11.70;99.90;;;;;;5155868;27;20087;-62
2022/10/31 00:11:13;;;;;;;47.30;24.38;;;11.50;99.90;;;;;;5155813;27;20042;-62
2022/10/31 00:13:39;;;;;;;50.33;24.25;;;11.80;99.90;;;;;;5155707;27;20066;-63
2022/10/31 00:16:05;;;;;;;50.90;23.77;;;11.60;99.90;;;;;;5155759;27;20391;-62
2022/10/31 00:18:31;;;;;;;54.75;24.75;;;11.80;99.90;;;;;;5155438;27;20038;-62
2022/10/31 00:21:01;;;;;;;58.47;26.27;;;11.80;99.90;;;;;;5155578;27;20498;-62
2022/10/31 00:23:27;;;;;;;48.38;23.73;;;11.50;99.90;;;;;;5155616;27;20035;-63
2022/10/31 00:25:53;;;;;;;50.67;25.38;;;11.30;99.90;;;;;;5155586;27;20462;-63
2022/10/31 00:28:18;;;;;;;52.80;25.27;;;11.40;99.90;;;;;;5155503;27;20431;-62
2022/10/31 00:30:44;;;;;;;55.72;26.20;;;11.60;99.90;;;;;;5155427;27;20095;-64
2022/10/31 00:33:09;;;;;;;49.40;23.85;;;11.60;99.90;;;;;;5155338;27;20095;-62
2022/10/31 00:35:35;;;;;;;51.80;24.27;;;11.50;99.90;;;;;;5155245;27;20054;-63
2022/10/31 00:38:01;;;;;;;64.78;24.35;;;11.50;99.90;;;;;;5155268;27;20053;-62
2022/10/31 00:40:26;;;;;;;53.75;23.55;;;11.30;99.90;;;;;;5155226;27;20042;-62
2022/10/31 00:42:52;;;;;;;55.60;24.08;;;11.50;99.90;;;;;;5155210;27;20171;-62
2022/10/31 00:45:18;;;;;;;52.95;26.23;;;11.90;99.90;;;;;;5155139;27;20050;-62
2022/10/31 00:47:43;;;;;;;54.40;24.38;;;11.50;99.90;;;;;;5154859;27;20138;-62
2022/10/31 00:50:09;;;;;;;46.03;24.10;;;11.70;99.90;;;;;;5155056;27;20042;-63
2022/10/31 00:52:35;;;;;;;46.97;24.15;;;11.50;99.90;;;;;;5154996;27;20053;-62
2022/10/31 00:55:00;;;;;;;46.15;23.90;;;11.60;99.90;;;;;;5154900;27;20034;-63
2022/10/31 00:57:26;;;;;;;49.38;23.02;;;11.50;99.90;;;;;;5154936;27;20045;-63
2022/10/31 00:59:52;;;;;;;41.50;23.42;;;11.40;99.90;;;;;;5154939;27;20043;-62
2022/10/31 01:02:17;;;;;;;47.85;22.88;;;11.50;99.90;;;;;;5154569;27;20486;-62
2022/10/31 01:04:44;;;;;;;44.55;22.48;;;11.60;99.90;;;;;;5136341;27;20472;-62
2022/10/31 01:07:11;;;;;;;;;;;11.50;99.90;;;;;;5155207;27;20086;-65
2022/10/31 01:09:36;;;;;;;45.00;22.42;;;11.20;99.90;;;;;;5154717;27;20286;-62
2022/10/31 01:12:02;;;;;;;44.40;21.00;;;11.00;99.90;;;;;;5154387;27;20035;-62
2022/10/31 01:14:28;;;;;;;44.20;21.52;;;11.00;99.90;;;;;;5154600;27;20078;-62
2022/10/31 01:16:53;;;;;;;50.55;23.65;;;11.00;99.90;;;;;;5154392;27;20102;-62
2022/10/31 01:19:19;;;;;;;47.47;22.50;;;11.30;99.90;;;;;;5154646;27;20069;-62
2022/10/31 01:21:45;;;;;;;45.65;22.38;;;11.30;99.90;;;;;;5154572;27;20383;-63
2022/10/31 01:24:11;;;;;;;50.05;23.48;;;11.00;99.90;;;;;;5154538;27;20127;-63
2022/10/31 01:26:36;;;;;;;54.05;24.02;;;11.00;99.90;;;;;;5154492;27;20046;-62
2022/10/31 01:29:07;;;;;;;45.72;23.67;;;10.80;99.90;;;;;;5154505;27;20043;-62
2022/10/31 01:31:39;;;;;;;48.60;24.10;;;10.90;99.90;;;;;;5154200;27;20042;-62
2022/10/31 01:34:06;;;;;;;57.95;24.77;;;10.60;99.90;;;;;;5154326;27;20039;-62
2022/10/31 01:36:34;;;;;;;49.28;24.02;;;10.70;99.90;;;;;;5154358;27;20059;-63
2022/10/31 01:39:03;;;;;;;53.42;25.55;;;11.10;99.90;;;;;;5154364;27;20107;-63
2022/10/31 01:41:32;;;;;;;58.70;25.92;;;10.80;99.90;;;;;;5154293;27;20090;-62
2022/10/31 01:44:21;;;;;;;62.03;25.73;;;11.10;99.90;;;;;;5154344;27;20045;-62
2022/10/31 01:46:56;;;;;;;64.30;25.50;;;11.20;99.90;;;;;;5105785;27;20058;-62
2022/10/31 01:49:36;;;;;;;58.55;25.98;;;11.20;99.90;;;;;;5154346;27;20043;-62
2022/10/31 01:52:11;;;;;;;56.17;26.10;;;11.00;99.90;;;;;;5154260;27;20043;-62
2022/10/31 01:54:43;;;;;;;64.78;28.15;;;10.70;99.90;;;;;;5154249;27;20443;-62
2022/10/31 01:57:12;;;;;;;57.70;27.83;;;11.00;99.90;;;;;;5154322;27;20051;-62
2022/10/31 01:59:43;;;;;;;58.00;26.88;;;11.20;99.90;;;;;;5153949;27;20046;-62
2022/10/31 02:02:10;;;;;;;57.15;26.77;;;10.90;99.90;;;;;;5153873;27;20482;-62
2022/10/31 02:04:36;;;;;;;59.25;27.02;;;11.30;99.90;;;;;;5154141;27;20065;-63
2022/10/31 02:07:15;;;;;;;61.28;28.48;;;10.70;99.90;;;;;;5154131;27;20049;-62
2022/10/31 02:09:44;;;;;;;61.70;28.30;;;11.20;99.90;;;;;;5135731;27;20081;-63
2022/10/31 02:12:10;;;;;;;61.97;28.17;;;10.90;99.90;;;;;;5154108;27;20082;-62
2022/10/31 02:14:37;;;;;;;60.22;28.17;;;11.00;99.90;;;;;;5153681;27;20050;-63
2022/10/31 02:17:03;;;;;;;61.28;28.73;;;10.80;99.90;;;;;;5154011;27;20099;-62
2022/10/31 02:19:56;;;;;;;57.15;28.27;;;10.70;99.90;;;;;;5153982;27;20055;-62
2022/10/31 02:22:30;;;;;;;56.53;28.15;;;10.90;99.90;;;;;;5139105;27;20375;-62
2022/10/31 02:25:23;;;;;;;59.25;28.15;;;10.70;99.90;;;;;;5139701;27;20398;-64
2022/10/31 02:27:58;;;;;;;62.80;28.60;;;10.80;99.90;;;;;;5157921;27;20443;-62
2022/10/31 02:30:27;;;;;;;62.58;28.20;;;11.00;99.90;;;;;;5157595;27;20043;-62
2022/10/31 02:32:59;;;;;;;69.60;28.73;;;10.60;99.90;;;;;;5157713;27;20035;-62
2022/10/31 02:35:33;;;;;;;54.08;26.77;;;10.70;99.90;;;;;;5157389;27;20057;-62
2022/10/31 02:38:07;;;;;;;56.13;28.02;;;10.50;99.90;;;;;;5157727;27;20061;-62
2022/10/31 02:40:39;;;;;;;66.28;28.75;;;10.80;99.90;;;;;;5157641;27;20443;-62
2022/10/31 02:44:00;;;;;;;55.13;28.23;;;10.90;99.90;;;;;;5157337;27;20042;-62
2022/10/31 02:46:42;;;;;;;60.25;28.60;;;10.80;99.90;;;;;;5152443;27;20058;-62
2022/10/31 02:49:52;;;;;;;63.38;28.05;;;10.70;99.90;;;;;;5157469;27;20103;-62
2022/10/31 02:52:24;;;;;;;57.65;28.38;;;10.80;99.90;;;;;;5052817;28;20057;-62
2022/10/31 02:54:50;;;;;;;61.83;27.95;;;10.80;99.90;;;;;;5052796;28;20056;-62
2022/10/31 02:57:24;;;;;;;61.97;28.80;;;10.60;99.90;;;;;;5105715;27;20077;-65
2022/10/31 02:59:55;;;;;;;61.20;28.88;;;10.40;99.90;;;;;;5157313;27;20046;-62
2022/10/31 03:02:27;;;;;;;58.63;29.08;;;10.40;99.90;;;;;;5157276;27;20050;-63
2022/10/31 03:05:11;;;;;;;55.55;28.20;;;10.40;99.90;;;;;;5157128;27;20074;-62
2022/10/31 03:08:14;;;;;;;64.80;26.85;;;10.50;99.90;;;;;;5157081;27;20053;-62
2022/10/31 03:10:58;;;;;;;53.45;27.48;;;10.40;99.90;;;;;;5140462;27;20555;-62
2022/10/31 03:13:33;;;;;;;62.05;28.52;;;10.50;99.90;;;;;;5156617;27;20092;-62
2022/10/31 03:16:18;;;;;;;57.92;27.00;;;10.60;99.90;;;;;;5156626;27;20394;-62
2022/10/31 03:19:00;;;;;;;52.30;27.02;;;10.30;99.90;;;;;;5156918;27;20049;-62
2022/10/31 03:21:33;;;;;;;55.67;26.23;;;11.20;99.90;;;;;;5156912;27;20049;-63
2022/10/31 03:24:00;;;;;;;52.88;26.95;;;10.00;99.90;;;;;;5156846;27;20039;-62
2022/10/31 03:26:27;;;;;;;60.92;27.50;;;10.20;99.90;;;;;;5156469;27;20042;-63
2022/10/31 03:29:02;;;;;;;62.50;27.52;;;10.20;99.90;;;;;;5156903;27;20046;-62
2022/10/31 03:31:34;;;;;;;55.70;28.20;;;10.30;99.90;;;;;;5156692;27;20368;-62
2022/10/31 03:34:02;;;;;;;55.05;28.73;;;10.10;99.90;;;;;;5156174;27;20054;-63
2022/10/31 03:36:32;;;;;;;60.63;27.90;;;9.90;99.90;;;;;;5156390;27;20051;-62
2022/10/31 03:39:02;;;;;;;72.70;31.02;;;9.70;99.90;;;;;;5156473;27;20111;-62
2022/10/31 03:41:30;;;;;;;61.03;29.05;;;9.80;99.90;;;;;;5156174;27;20058;-62
2022/10/31 03:44:04;;;;;;;65.15;29.88;;;10.20;99.90;;;;;;5156381;27;20039;-62
2022/10/31 03:46:29;;;;;;;65.75;31.05;;;10.10;99.90;;;;;;5156368;27;20168;-62
2022/10/31 03:48:56;;;;;;;73.05;32.45;;;10.60;99.90;;;;;;5138023;27;20122;-62
2022/10/31 03:51:35;;;;;;;77.72;32.20;;;10.30;99.90;;;;;;5156310;27;20055;-62
2022/10/31 03:54:09;;;;;;;65.45;30.17;;;10.30;99.90;;;;;;5156156;27;20034;-61
2022/10/31 03:56:44;;;;;;;59.30;29.80;;;9.70;99.90;;;;;;5155927;27;20133;-61
2022/10/31 03:59:27;;;;;;;66.65;31.50;;;10.10;99.90;;;;;;5156435;27;20095;-62
2022/10/31 04:01:59;;;;;;;59.72;29.63;;;10.40;99.90;;;;;;5156110;27;20125;-62
2022/10/31 04:04:26;;;;;;;62.80;29.70;;;10.00;99.90;;;;;;5156096;27;20069;-62
2022/10/31 04:06:54;;;;;;;62.88;30.83;;;9.70;99.90;;;;;;5155904;27;20046;-63
2022/10/31 04:09:21;;;;;;;71.63;31.33;;;9.70;99.90;;;;;;5155842;27;20038;-62
2022/10/31 04:11:56;;;;;;;68.35;31.42;;;10.40;99.90;;;;;;5155552;27;20394;-63
2022/10/31 04:14:25;;;;;;;63.63;30.77;;;10.20;99.90;;;;;;5155772;27;20137;-64
2022/10/31 04:16:51;;;;;;;63.03;31.00;;;11.00;99.90;;;;;;5137220;27;20168;-62
2022/10/31 04:19:17;;;;;;;64.28;29.45;;;10.00;99.90;;;;;;5155736;27;20050;-62
2022/10/31 04:21:43;;;;;;;62.63;30.52;;;10.00;99.90;;;;;;5155654;27;20050;-62
2022/10/31 04:24:09;;;;;;;;;;;10.40;99.90;;;;;;5156017;27;20125;-62
2022/10/31 04:26:34;;;;;;;65.97;28.75;;;9.90;99.90;;;;;;5155292;27;20025;-62
2022/10/31 04:29:00;;;;;;;63.25;30.42;;;10.30;99.90;;;;;;5155175;27;20130;-62
2022/10/31 04:31:26;;;;;;;66.80;28.88;;;9.60;99.90;;;;;;5155405;27;20046;-62
2022/10/31 04:33:51;;;;;;;60.50;28.45;;;10.30;99.90;;;;;;5155024;27;20047;-62
2022/10/31 04:36:17;;;;;;;61.35;27.80;;;10.10;99.90;;;;;;5155256;27;20063;-62
2022/10/31 04:38:43;;;;;;;64.10;28.27;;;9.90;99.90;;;;;;5155243;27;20485;-62
2022/10/31 04:41:09;;;;;;;61.53;27.98;;;10.20;99.90;;;;;;5154668;27;20107;-62
2022/10/31 04:43:34;;;;;;;59.00;28.67;;;9.60;99.90;;;;;;5155242;27;20038;-62
2022/10/31 04:46:00;;;;;;;60.53;27.58;;;10.20;99.90;;;;;;5154499;27;20470;-62
2022/10/31 04:48:26;;;;;;;60.70;28.52;;;10.20;99.90;;;;;;5155131;27;20073;-62
2022/10/31 04:50:51;;;;;;;60.25;29.70;;;9.90;99.90;;;;;;5155032;27;20038;-62
2022/10/31 04:53:17;;;;;;;62.35;28.85;;;9.80;99.90;;;;;;5154746;27;20051;-63
2022/10/31 04:55:43;;;;;;;53.85;27.08;;;9.90;99.90;;;;;;5155339;27;20462;-62
2022/10/31 04:58:08;;;;;;;63.30;29.17;;;9.90;99.90;;;;;;5154954;27;20470;-62
2022/10/31 05:00:34;;;;;;;60.45;27.80;;;9.90;99.90;;;;;;5154828;27;20367;-62
2022/10/31 05:02:59;;;;;;;59.70;28.10;;;9.60;99.90;;;;;;5154768;27;20038;-62
2022/10/31 05:05:28;;;;;;;64.70;28.17;;;9.90;99.90;;;;;;5154739;27;20387;-62
2022/10/31 05:07:54;;;;;;;54.40;28.75;;;9.90;99.90;;;;;;5154499;27;20501;-62
2022/10/31 05:10:22;;;;;;;54.85;28.02;;;9.50;99.90;;;;;;5154724;27;20129;-62
2022/10/31 05:12:53;;;;;;;56.72;28.40;;;10.20;99.90;;;;;;5154730;27;20061;-62
2022/10/31 05:15:21;;;;;;;60.67;28.35;;;9.60;99.90;;;;;;5154623;27;20179;-62
2022/10/31 05:17:46;;;;;;;67.82;29.42;;;10.00;99.90;;;;;;5154630;27;20047;-62
2022/10/31 05:20:13;;;;;;;54.50;27.60;;;10.80;99.90;;;;;;5154628;27;20049;-62
2022/10/31 05:22:47;;;;;;;57.65;27.00;;;10.00;99.90;;;;;;5154250;27;20070;-62
2022/10/31 05:25:13;;;;;;;61.97;27.42;;;9.70;99.90;;;;;;5154576;27;20142;-63
2022/10/31 05:27:41;;;;;;;58.42;27.67;;;10.00;99.90;;;;;;5154517;27;20493;-62
2022/10/31 05:30:08;;;;;;;56.28;27.17;;;9.90;99.90;;;;;;5154498;27;20129;-62
2022/10/31 05:32:41;;;;;;;50.38;26.75;;;9.50;99.90;;;;;;5154461;27;20489;-62
2022/10/31 05:35:08;;;;;;;53.42;27.25;;;9.20;99.90;;;;;;5154443;27;20487;-62
2022/10/31 05:37:36;;;;;;;59.35;28.38;;;9.50;99.90;;;;;;5154237;27;20081;-63
2022/10/31 05:40:03;;;;;;;52.75;28.33;;;9.70;99.90;;;;;;5154431;27;20039;-62
2022/10/31 05:42:29;;;;;;;56.35;28.92;;;10.20;99.90;;;;;;5152933;27;20095;-62
2022/10/31 05:44:55;;;;;;;63.47;27.80;;;9.60;99.90;;;;;;5154324;27;20047;-62
2022/10/31 05:47:20;;;;;;;58.17;27.88;;;10.00;99.90;;;;;;5154303;27;20042;-62
2022/10/31 05:49:46;;;;;;;49.00;25.33;;;9.30;99.90;;;;;;5154338;27;20091;-62
2022/10/31 05:52:12;;;;;;;56.35;26.92;;;9.70;99.90;;;;;;5154100;27;20043;-62
2022/10/31 05:54:37;;;;;;;53.80;25.45;;;9.90;99.90;;;;;;5154185;27;20806;-62
2022/10/31 05:57:03;;;;;;;53.25;26.08;;;9.40;99.90;;;;;;5156239;27;20402;-64
2022/10/31 05:59:28;;;;;;;55.55;27.65;;;9.30;99.90;;;;;;5158415;27;20042;-62
2022/10/31 06:01:54;;;;;;;55.38;27.20;;;9.60;99.90;;;;;;5158681;27;20038;-62
2022/10/31 06:04:20;;;;;;;62.72;27.33;;;9.90;99.90;;;;;;5158353;27;20074;-62
2022/10/31 06:06:45;;;;;;;53.05;26.85;;;9.60;99.90;;;;;;5157984;27;20039;-62
2022/10/31 06:09:11;;;;;;;62.33;27.55;;;9.10;99.90;;;;;;5158359;27;20043;-62
2022/10/31 06:11:37;;;;;;;55.70;27.15;;;9.40;99.90;;;;;;5158221;27;20081;-62
2022/10/31 06:14:03;;;;;;;56.25;27.67;;;10.00;99.90;;;;;;5158209;27;20038;-62
2022/10/31 06:16:29;;;;;;;61.13;28.23;;;9.90;99.90;;;;;;5158095;27;20054;-62
2022/10/31 06:18:54;;;;;;;66.50;27.67;;;9.70;99.90;;;;;;5158086;27;20516;-63
2022/10/31 06:21:20;;;;;;;63.92;29.67;;;9.80;99.90;;;;;;5157736;27;20497;-62
2022/10/31 06:23:45;;;;;;;58.53;28.23;;;9.80;99.90;;;;;;5157752;27;20483;-62
2022/10/31 06:26:11;;;;;;;57.22;28.35;;;11.20;99.90;;;;;;5157889;27;20063;-62
2022/10/31 06:28:37;;;;;;;53.53;27.48;;;9.70;99.90;;;;;;5157854;27;20038;-62
2022/10/31 06:31:02;;;;;;;55.45;27.52;;;9.80;99.90;;;;;;5157846;27;20049;-62
2022/10/31 06:33:28;;;;;;;55.80;27.58;;;9.80;99.90;;;;;;5157709;27;20203;-62
2022/10/31 06:35:54;;;;;;;55.55;29.25;;;9.70;99.90;;;;;;5157159;27;20050;-63
2022/10/31 06:38:19;;;;;;;61.75;28.25;;;10.00;99.90;;;;;;5157634;27;20061;-62
2022/10/31 06:40:45;;;;;;;65.22;29.25;;;9.60;99.90;;;;;;5157609;27;20060;-62
2022/10/31 06:43:11;;;;;;;62.22;30.17;;;9.50;99.90;;;;;;5157613;27;20119;-62
2022/10/31 06:45:37;;;;;;;64.80;30.65;;;9.90;99.90;;;;;;5157499;27;20087;-62
2022/10/31 06:48:03;;;;;;;56.30;29.58;;;9.30;99.90;;;;;;5157535;27;20142;-62
2022/10/31 06:50:29;;;;;;;61.80;30.05;;;9.30;99.90;;;;;;5138814;27;20414;-64
2022/10/31 06:52:56;;;;;;;61.33;30.63;;;9.70;99.90;;;;;;5157384;27;20034;-62
2022/10/31 06:55:24;;;;;;;64.57;30.92;;;10.00;99.90;;;;;;5157205;27;20083;-62
2022/10/31 07:04:27;;;;;;;73.65;32.53;;;9.50;99.90;;;;;;5110181;27;20453;-61
2022/10/31 07:06:53;;;;;;;74.05;35.35;;;10.10;99.90;;;;;;5110219;28;20048;-61
2022/10/31 07:09:19;;;;;;;70.10;33.50;;;10.10;99.90;;;;;;5109295;28;20538;-62
2022/10/31 07:11:44;;;;;;;73.18;34.40;;;9.60;99.90;;;;;;5110549;28;20403;-62
2022/10/31 07:14:10;;;;;;;75.82;35.50;;;9.90;99.90;;;;;;5110453;28;20040;-61
2022/10/31 07:16:35;;;;;;;72.97;34.15;;;9.60;99.90;;;;;;5110453;28;20446;-62
2022/10/31 07:19:01;;;;;;;61.60;32.97;;;9.40;99.90;;;;;;5110377;28;20460;-61
2022/10/31 07:21:27;;;;;;;58.80;31.70;;;10.20;99.90;;;;;;5109058;28;20399;-62
2022/10/31 07:23:52;;;;;;;55.25;30.30;;;9.70;99.90;;;;;;5110236;28;20044;-61
2022/10/31 07:26:18;;;;;;;63.38;33.03;;;9.90;99.90;;;;;;5110270;28;20058;-62
2022/10/31 07:28:46;;;;;;;61.97;32.45;;;9.30;99.90;;;;;;5110168;28;20047;-61
2022/10/31 07:31:12;;;;;;;67.47;32.08;;;10.10;99.90;;;;;;5110166;28;20044;-61
2022/10/31 07:33:38;;;;;;;63.33;31.67;;;10.10;99.90;;;;;;5109863;28;20441;-61
2022/10/31 07:36:04;;;;;;;69.07;34.42;;;10.00;99.90;;;;;;5110092;28;20043;-61
2022/10/31 07:38:29;;;;;;;69.70;35.88;;;10.20;99.90;;;;;;5110056;28;20066;-63
2022/10/31 07:40:55;;;;;;;60.38;33.00;;;10.60;99.90;;;;;;5110007;28;20050;-62
2022/10/31 07:43:21;;;;;;;63.92;33.25;;;10.20;99.90;;;;;;5109834;28;20040;-62
2022/10/31 07:45:51;;;;;;;68.70;34.85;;;9.90;99.90;;;;;;5109829;28;20105;-62
2022/10/31 07:48:17;;;;;;;69.13;34.42;;;10.20;99.90;;;;;;5115829;28;20437;-63
2022/10/31 07:50:43;;;;;;;69.82;34.42;;;10.50;99.90;;;;;;5120224;27;20047;-63
2022/10/31 07:53:10;;;;;;;64.25;34.25;;;10.10;99.90;;;;;;5109257;28;20043;-63
2022/10/31 07:55:37;;;;;;;67.57;35.78;;;11.20;99.90;;;;;;5108978;28;20081;-63
2022/10/31 07:58:05;;;;;;;59.75;32.72;;;10.80;99.90;;;;;;5109388;28;20047;-63
2022/10/31 08:00:33;;;;;;;60.38;32.58;;;10.50;99.90;;;;;;5108955;28;20135;-63
2022/10/31 08:03:08;;;;;;;71.25;34.13;;;10.10;99.90;;;;;;5107074;28;20059;-63
2022/10/31 08:05:34;;;;;;;56.03;30.25;;;10.30;99.90;;;;;;5108826;28;20480;-63
2022/10/31 08:08:00;;;;;;;65.05;32.50;;;10.20;99.90;;;;;;5108949;28;20047;-63
2022/10/31 08:10:27;;;;;;;58.83;31.95;;;10.30;99.90;;;;;;5108865;28;20055;-63
2022/10/31 08:13:01;;;;;;;71.07;33.90;;;10.10;99.90;;;;;;5108784;28;20040;-62
2022/10/31 08:15:27;;;;;;;69.72;34.10;;;10.40;99.90;;;;;;5097239;28;20040;-63
2022/10/31 08:17:53;;;;;;;59.50;33.35;;;10.80;99.90;;;;;;5093984;28;20085;-63
2022/10/31 08:20:19;;;;;;;63.95;33.22;;;10.10;99.90;;;;;;5094056;28;20048;-63
2022/10/31 08:23:03;;;;;;;61.15;33.88;;;10.40;99.90;;;;;;5095311;28;20040;-62
2022/10/31 08:25:31;;;;;;;57.83;32.83;;;10.90;99.90;;;;;;5095185;28;20500;-63
2022/10/31 08:27:57;;;;;;;62.33;34.30;;;10.50;99.90;;;;;;5095167;28;20561;-62
2022/10/31 08:30:25;;;;;;;59.60;34.75;;;11.00;99.90;;;;;;5088366;28;20047;-64
2022/10/31 08:33:02;;;;;;;64.75;34.25;;;10.80;99.90;;;;;;5094888;28;20048;-61
2022/10/31 08:35:28;;;;;;;66.97;35.75;;;11.00;99.90;;;;;;5094610;28;20059;-70
2022/10/31 08:37:57;;;;;;;58.72;33.38;;;11.30;99.90;;;;;;5093331;28;20044;-62
2022/10/31 08:40:23;;;;;;;66.28;35.67;;;11.00;99.90;;;;;;5094574;28;20051;-64
2022/10/31 08:43:08;;;;;;;59.50;34.17;;;11.40;99.90;;;;;;5094828;28;20036;-64
2022/10/31 08:45:34;;;;;;;55.88;32.60;;;11.40;99.90;;;;;;5094146;28;20549;-62
2022/10/31 08:48:03;;;;;;;61.50;33.47;;;11.40;99.90;;;;;;5094793;28;20054;-64
2022/10/31 08:50:30;;;;;;;53.42;32.45;;;11.50;99.90;;;;;;5094671;28;20056;-62
2022/10/31 08:53:04;;;;;;;55.83;31.55;;;11.60;99.90;;;;;;5093749;28;20138;-61
2022/10/31 08:55:30;;;;;;;50.53;31.13;;;11.70;99.90;;;;;;5094611;28;20059;-61
2022/10/31 08:57:57;;;;;;;;;;;11.60;99.90;;;;;;5095191;28;20119;-63
2022/10/31 09:00:23;;;;;;;52.15;31.10;;;12.40;99.90;;;;;;5093836;28;20363;-61
2022/10/31 09:02:54;;;;;;;;;;;12.10;99.90;;;;;;5094711;28;20056;-61
2022/10/31 09:05:20;;;;;;;49.72;28.67;;;12.20;99.90;;;;;;5094346;28;19920;-64
2022/10/31 09:07:45;;;;;;;55.70;29.75;;;12.20;99.90;;;;;;5094396;28;20054;-63
2022/10/31 09:10:11;;;;;;;52.42;30.08;;;12.50;99.90;;;;;;5093952;28;20399;-63
2022/10/31 09:12:36;;;;;;;45.58;28.05;;;12.60;99.90;;;;;;5094327;28;20048;-64
2022/10/31 09:15:02;;;;;;;47.95;28.50;;;12.10;99.90;;;;;;5093620;28;20063;-63
2022/10/31 09:17:28;;;;;;;43.58;25.45;;;12.30;99.90;;;;;;5090697;28;20055;-64
2022/10/31 09:19:54;;;;;;;44.08;24.77;;;12.50;99.90;;;;;;5096421;28;20047;-63
2022/10/31 09:22:20;;;;;;;41.70;26.23;;;12.40;99.90;;;;;;5093218;28;20048;-63
2022/10/31 09:24:45;;;;;;;43.92;23.67;;;12.80;99.90;;;;;;5092986;28;20044;-69
2022/10/31 09:27:11;;;;;;;39.53;24.58;;;13.90;99.90;;;;;;5092477;28;20117;-63
2022/10/31 09:29:37;;;;;;;36.75;23.17;;;14.10;99.90;;;;;;5093892;28;20456;-63
2022/10/31 09:32:02;;;;;;;34.20;22.70;;;13.10;99.90;;;;;;5094229;28;20086;-63
2022/10/31 09:34:28;;;;;;;40.50;23.98;;;12.50;99.90;;;;;;5093884;28;20044;-63
2022/10/31 09:36:54;;;;;;;34.85;22.48;;;13.60;99.90;;;;;;5093812;28;20040;-63
2022/10/31 09:39:20;;;;;;;31.63;20.10;;;13.10;99.90;;;;;;5092447;28;20044;-63
2022/10/31 09:42:10;;;;;;;30.20;19.98;;;13.80;99.90;;;;;;5093613;28;20069;-63
2022/10/31 09:44:49;;;;;;;30.55;20.48;;;13.50;99.90;;;;;;5093117;28;20056;-64
2022/10/31 09:47:29;;;;;;;35.03;20.15;;;13.60;99.90;;;;;;5093324;28;20442;-63
2022/10/31 09:50:12;;;;;;;27.33;18.15;;;13.70;99.90;;;;;;5093339;28;20055;-63
2022/10/31 09:52:43;;;;;;;31.73;19.27;;;14.00;99.90;;;;;;5093426;28;20048;-63
2022/10/31 09:55:14;;;;;;;34.95;20.05;;;13.70;99.90;;;;;;5092487;28;20055;-63
2022/10/31 09:57:41;;;;;;;30.80;18.13;;;14.20;99.90;;;;;;5093103;28;20559;-63
2022/10/31 10:00:18;;;;;;;23.75;15.68;;;14.20;99.90;;;;;;5092815;28;20097;-63
2022/10/31 10:02:59;;;;;;;24.00;15.02;;;13.60;99.90;;;;;;5107501;28;20094;-67
2022/10/31 10:05:36;;;;;;;23.52;14.57;;;13.90;99.90;;;;;;5095372;28;20058;-63
2022/10/31 10:08:22;;;;;;;27.52;15.00;;;14.40;99.90;;;;;;5093113;28;20459;-63
2022/10/31 10:10:54;;;;;;;20.23;13.38;;;14.40;99.90;;;;;;5072915;28;20381;-67
2022/10/31 10:13:32;;;;;;;19.67;12.57;;;14.60;99.90;;;;;;5072524;28;20048;-63
2022/10/31 10:16:05;;;;;;;20.60;11.80;;;14.30;99.90;;;;;;5072713;28;20118;-63
2022/10/31 10:18:55;;;;;;;18.45;11.80;;;14.40;99.90;;;;;;5073172;28;20048;-63
2022/10/31 10:21:56;;;;;;;23.88;11.20;;;14.60;99.90;;;;;;5092977;28;20048;-63
2022/10/31 10:24:40;;;;;;;21.38;11.63;;;14.70;99.90;;;;;;5054698;28;20057;-63
2022/10/31 10:27:19;;;;;;;17.40;10.68;;;14.40;99.90;;;;;;5092450;28;20146;-63
2022/10/31 10:29:50;;;;;;;20.52;11.70;;;14.40;99.90;;;;;;5092711;28;20119;-63
2022/10/31 10:32:28;;;;;;;22.30;11.43;;;14.80;99.90;;;;;;5092733;28;20416;-64
2022/10/31 10:35:02;;;;;;;19.58;11.52;;;15.00;99.90;;;;;;5092677;28;20036;-64
2022/10/31 10:37:35;;;;;;;20.75;12.23;;;14.80;99.90;;;;;;5092604;28;20392;-64
2022/10/31 10:40:14;;;;;;;18.38;11.30;;;14.90;99.90;;;;;;5092422;28;20055;-64
2022/10/31 10:48:15;;;;;;;20.48;10.38;;;15.10;99.90;;;;;;5086316;28;20056;-65
2022/10/31 10:50:47;;;;;;;19.10;10.52;;;15.00;99.90;;;;;;5091738;28;20040;-66
2022/10/31 10:54:03;;;;;;;18.33;11.23;;;15.30;99.90;;;;;;5092640;28;20080;-64
2022/10/31 10:56:49;;;;;;;16.73;11.07;;;15.60;99.90;;;;;;5072105;28;20053;-63
2022/10/31 10:59:20;;;;;;;15.73;10.13;;;15.50;99.90;;;;;;5079828;28;20488;-63
2022/10/31 11:01:49;;;;;;;15.88;10.52;;;15.10;99.90;;;;;;5092275;28;20048;-64
2022/10/31 11:04:27;;;;;;;20.10;10.30;;;15.20;99.90;;;;;;5090404;28;20496;-65
2022/10/31 11:07:08;;;;;;;16.40;9.73;;;15.20;99.90;;;;;;5091118;28;20051;-71
2022/10/31 11:09:35;;;;;;;13.38;9.73;;;15.20;99.90;;;;;;5091879;28;20052;-65
2022/10/31 11:12:25;;;;;;;15.48;9.18;;;15.50;99.90;;;;;;5092276;28;20055;-65
2022/10/31 11:15:25;;;;;;;13.95;9.48;;;15.30;99.90;;;;;;5091970;28;20403;-65
2022/10/31 11:17:54;;;;;;;12.77;8.57;;;15.50;99.90;;;;;;5092610;28;20048;-65
2022/10/31 11:20:19;;;;;;;12.18;8.80;;;15.50;99.90;;;;;;5092228;28;20044;-65
2022/10/31 11:22:47;;;;;;;14.18;8.18;;;15.40;99.90;;;;;;5092169;28;20438;-64
2022/10/31 11:25:25;;;;;;;14.93;7.93;;;15.40;99.90;;;;;;5092423;28;20052;-65
2022/10/31 11:28:02;;;;;;;11.45;8.25;;;15.80;99.90;;;;;;5092810;28;20139;-65
2022/10/31 11:30:29;;;;;;;16.15;9.40;;;15.60;99.90;;;;;;5092230;28;20052;-65
2022/10/31 11:32:56;;;;;;;14.68;8.88;;;15.70;99.90;;;;;;5092389;28;20040;-65
2022/10/31 11:35:23;;;;;;;16.30;8.90;;;15.60;99.90;;;;;;5092586;28;20043;-65
2022/10/31 11:37:53;;;;;;;12.32;8.45;;;15.90;99.90;;;;;;5092376;28;20124;-65
2022/10/31 11:40:21;;;;;;;14.15;8.23;;;15.70;99.90;;;;;;5092053;28;20109;-65
2022/10/31 11:42:49;;;;;;;15.05;7.00;;;15.90;99.90;;;;;;5092475;28;20040;-67
2022/10/31 11:45:23;;;;;;;17.75;7.45;;;15.80;99.90;;;;;;5091980;28;20476;-65
2022/10/31 11:47:51;;;;;;;13.35;7.25;;;15.70;99.90;;;;;;5092309;28;20135;-65
2022/10/31 11:50:28;;;;;;;10.60;5.72;;;15.60;99.90;;;;;;5094424;28;20059;-65
2022/10/31 11:52:55;;;;;;;11.90;6.18;;;15.90;99.90;;;;;;5095161;28;20451;-65
2022/10/31 11:55:38;;;;;;;13.32;7.05;;;15.70;99.90;;;;;;5095824;28;20055;-64
2022/10/31 11:58:04;;;;;;;16.48;7.90;;;15.80;99.90;;;;;;5096190;28;20048;-65
2022/10/31 12:00:37;;;;;;;12.52;8.35;;;15.80;99.90;;;;;;5096005;28;20052;-65
2022/10/31 12:03:31;;;;;;;14.85;10.15;;;15.50;99.90;;;;;;5095578;28;20055;-66
2022/10/31 12:06:20;;;;;;;15.85;9.27;;;15.40;99.90;;;;;;5095994;28;20056;-65
2022/10/31 12:08:46;;;;;;;17.15;10.13;;;15.20;99.90;;;;;;5095702;28;20036;-65
2022/10/31 12:11:12;;;;;;;;;;;15.10;99.90;;;;;;5096216;28;20048;-65
2022/10/31 12:14:00;;;;;;;17.83;10.98;;;15.20;99.90;;;;;;5095930;28;19930;-64
2022/10/31 12:16:48;;;;;;;17.90;10.75;;;14.90;99.90;;;;;;5087664;28;20056;-65
2022/10/31 12:19:20;;;;;;;18.63;11.73;;;15.20;99.90;;;;;;5095977;28;20105;-65
2022/10/31 12:22:09;;;;;;;19.40;11.35;;;15.00;99.90;;;;;;5095587;28;20059;-65
2022/10/31 12:24:59;;;;;;;15.70;10.25;;;15.00;99.90;;;;;;5095369;28;20502;-65
2022/10/31 12:27:53;;;;;;;14.38;10.10;;;15.00;99.90;;;;;;5095689;28;20048;-64
2022/10/31 12:30:41;;;;;;;17.10;9.93;;;15.00;99.90;;;;;;5079878;28;20059;-65
2022/10/31 12:33:33;;;;;;;17.83;11.27;;;15.50;99.90;;;;;;5087660;28;20457;-65
2022/10/31 12:36:18;;;;;;;20.60;11.73;;;15.50;99.90;;;;;;5095300;28;20067;-64
2022/10/31 12:38:50;;;;;;;16.92;12.40;;;15.70;99.90;;;;;;5094991;28;20071;-65
2022/10/31 12:41:19;;;;;;;21.63;13.05;;;15.60;99.90;;;;;;5095376;28;20040;-65
2022/10/31 12:44:04;;;;;;;21.15;12.40;;;15.40;99.90;;;;;;5094967;28;20040;-65
2022/10/31 12:46:54;;;;;;;16.83;10.98;;;15.60;99.90;;;;;;5095043;28;20135;-65
2022/10/31 12:49:28;;;;;;;17.58;11.35;;;15.50;99.90;;;;;;5095237;28;20105;-65
2022/10/31 12:52:03;;;;;;;16.50;10.43;;;15.60;99.90;;;;;;5094825;28;20040;-65
2022/10/31 12:54:59;;;;;;;16.77;10.25;;;16.00;99.90;;;;;;5094868;28;20048;-65
2022/10/31 12:57:38;;;;;;;17.15;9.98;;;16.30;99.90;;;;;;5093808;28;20044;-65
2022/10/31 13:00:07;;;;;;;17.17;9.77;;;16.30;99.90;;;;;;5094800;28;20052;-65
2022/10/31 13:02:51;;;;;;;14.23;9.55;;;16.00;99.90;;;;;;5094701;28;20051;-65